Time;durP1;ratioP1;P1;durP2;ratioP2;P2;SDS_P1;SDS_P2;PMS_P1;PMS_P2;Temp;Humidity;BMP_temperature;BMP_pressure;BME280_temperature;BME280_humidity;BME280_pressure;Samples;Min_cycle;Max_cycle;Signal;HPM_P1;HPM_P2
2023/10/20 00:00:06;;;;;;;22.05;10.93;;;;;;;15.40;100.00;96932.59;4485333;31;20115;-80
2023/10/20 00:02:34;;;;;;;19.20;10.30;;;;;;;15.53;100.00;96936.94;4485287;31;20088;-80
2023/10/20 00:05:05;;;;;;;26.98;10.20;;;;;;;15.50;100.00;96937.37;4485104;31;20110;-79
2023/10/20 00:07:32;;;;;;;23.05;11.07;;;;;;;15.43;100.00;96929.50;4485589;31;20159;-79
2023/10/20 00:10:00;;;;;;;23.30;11.48;;;;;;;15.42;100.00;96927.09;4485163;31;20092;-80
2023/10/20 00:12:28;;;;;;;23.98;10.85;;;;;;;15.38;100.00;96929.34;4485536;31;20153;-80
2023/10/20 00:14:56;;;;;;;20.55;10.40;;;;;;;15.27;100.00;96920.28;4485271;31;20153;-80
2023/10/20 00:17:24;;;;;;;30.02;10.90;;;;;;;15.27;100.00;96922.09;4471605;31;20468;-80
2023/10/20 00:19:53;;;;;;;18.75;10.40;;;;;;;15.28;100.00;96921.09;4469445;32;20466;-79
2023/10/20 00:22:20;;;;;;;18.98;10.38;;;;;;;15.43;100.00;96926.88;4469243;32;20113;-80
2023/10/20 00:24:48;;;;;;;17.83;9.48;;;;;;;15.32;100.00;96932.03;4469488;32;20430;-80
2023/10/20 00:27:16;;;;;;;19.12;9.68;;;;;;;15.42;100.00;96930.53;4471458;32;20444;-80
2023/10/20 00:29:44;;;;;;;14.75;9.10;;;;;;;15.56;100.00;96927.81;4484744;32;20100;-80
2023/10/20 00:32:12;;;;;;;20.80;10.18;;;;;;;15.47;100.00;96918.53;4485146;31;20526;-80
2023/10/20 00:34:39;;;;;;;19.83;10.82;;;;;;;15.43;100.00;96908.41;4484990;31;20621;-80
2023/10/20 00:37:07;;;;;;;20.88;9.57;;;;;;;15.50;100.00;96902.28;4485110;31;20459;-80
2023/10/20 00:39:35;;;;;;;26.87;9.77;;;;;;;15.63;100.00;96904.81;4485142;31;20084;-80
2023/10/20 00:42:03;;;;;;;16.98;9.15;;;;;;;15.66;100.00;96893.03;4484790;31;20085;-80
2023/10/20 00:44:31;;;;;;;21.37;9.65;;;;;;;15.76;100.00;96901.25;4485085;31;20108;-80
2023/10/20 00:46:59;;;;;;;15.57;8.38;;;;;;;15.77;100.00;96893.13;4484963;31;20111;-80
2023/10/20 00:49:27;;;;;;;15.63;8.63;;;;;;;15.76;100.00;96880.12;4484956;32;20110;-80
2023/10/20 00:51:56;;;;;;;16.23;8.43;;;;;;;15.82;100.00;96879.31;4485161;31;20101;-80
2023/10/20 00:54:24;;;;;;;20.67;9.02;;;;;;;15.74;100.00;96872.41;4484966;31;20583;-80
2023/10/20 00:56:52;;;;;;;14.93;8.60;;;;;;;15.73;100.00;96876.09;4484906;31;20079;-80
2023/10/20 00:59:20;;;;;;;19.92;8.60;;;;;;;15.72;100.00;96877.13;4484977;31;20092;-80
2023/10/20 01:01:48;;;;;;;20.27;8.68;;;;;;;15.63;100.00;96857.31;4484922;31;20110;-80
2023/10/20 01:04:16;;;;;;;16.52;9.18;;;;;;;15.69;100.00;96856.44;4485198;32;20099;-80
2023/10/20 01:06:44;;;;;;;19.55;9.35;;;;;;;15.67;100.00;96855.84;4484872;31;20367;-80
2023/10/20 01:09:12;;;;;;;16.73;8.18;;;;;;;15.67;100.00;96858.50;4485009;31;20142;-80
2023/10/20 01:11:39;;;;;;;14.77;8.35;;;;;;;15.66;100.00;96854.22;4484740;31;20119;-80
2023/10/20 01:14:07;;;;;;;21.52;8.55;;;;;;;15.60;100.00;96845.34;4484872;31;20161;-80
2023/10/20 01:16:35;;;;;;;14.30;7.40;;;;;;;15.46;100.00;96835.94;4476224;31;20548;-80
2023/10/20 01:19:03;;;;;;;16.40;8.18;;;;;;;15.64;100.00;96831.69;4469279;32;20130;-79
2023/10/20 01:21:31;;;;;;;18.35;7.72;;;;;;;15.69;100.00;96830.03;4468981;32;20142;-79
2023/10/20 01:24:02;;;;;;;17.45;7.43;;;;;;;15.76;100.00;96829.97;4469134;32;20127;-79
2023/10/20 01:26:29;;;;;;;15.73;7.18;;;;;;;15.80;100.00;96831.19;4469515;32;20088;-80
2023/10/20 01:28:58;;;;;;;20.60;7.12;;;;;;;15.80;100.00;96823.25;4482134;32;20122;-80
2023/10/20 01:31:26;;;;;;;17.67;8.48;;;;;;;15.90;100.00;96830.69;4484732;31;20088;-80
2023/10/20 01:33:53;;;;;;;18.42;8.13;;;;;;;15.90;100.00;96814.84;4484900;31;20096;-80
2023/10/20 01:36:21;;;;;;;20.10;8.40;;;;;;;15.96;100.00;96821.88;4484603;32;20092;-80
2023/10/20 01:38:49;;;;;;;14.18;7.07;;;;;;;15.97;100.00;96810.28;4484805;32;20093;-80
2023/10/20 01:41:16;;;;;;;14.60;7.72;;;;;;;15.86;100.00;96811.81;4483782;32;20097;-80
2023/10/20 01:43:44;;;;;;;15.10;7.32;;;;;;;15.91;100.00;96805.88;4484516;31;20123;-80
2023/10/20 01:46:12;;;;;;;19.30;8.93;;;;;;;15.92;100.00;96803.00;4484775;32;20084;-80
2023/10/20 01:48:46;;;;;;;15.18;7.00;;;;;;;15.78;100.00;96797.06;4484834;31;20610;-79
2023/10/20 01:51:14;;;;;;;17.20;8.45;;;;;;;15.87;100.00;96794.94;4483329;32;20088;-80
2023/10/20 01:53:42;;;;;;;15.38;8.00;;;;;;;15.87;100.00;96797.59;4484766;31;20118;-79
2023/10/20 01:56:10;;;;;;;13.43;7.95;;;;;;;15.92;100.00;96800.37;4484444;32;20100;-80
2023/10/20 01:58:38;;;;;;;19.17;8.23;;;;;;;15.84;100.00;96789.31;4484719;31;20123;-79
2023/10/20 02:01:08;;;;;;;14.45;7.65;;;;;;;15.83;100.00;96799.06;4484546;31;20665;-80
2023/10/20 02:03:36;;;;;;;14.45;7.57;;;;;;;15.86;100.00;96787.25;4484576;31;20088;-79
2023/10/20 02:06:04;;;;;;;17.00;7.47;;;;;;;15.79;100.00;96792.59;4484394;31;20148;-79
2023/10/20 02:08:34;;;;;;;17.77;7.65;;;;;;;15.87;100.00;96794.16;4484461;32;20141;-80
2023/10/20 02:11:02;;;;;;;18.37;7.50;;;;;;;15.85;100.00;96789.09;4484583;32;20151;-80
2023/10/20 02:13:30;;;;;;;17.35;7.25;;;;;;;15.78;100.00;96791.00;4484336;32;20092;-79
2023/10/20 02:15:59;;;;;;;13.27;6.90;;;;;;;15.77;100.00;96774.31;4479921;31;20099;-80
2023/10/20 02:18:30;;;;;;;19.80;6.68;;;;;;;15.92;100.00;96770.53;4468664;32;20141;-80
2023/10/20 02:21:03;;;;;;;20.98;7.30;;;;;;;15.86;100.00;96766.12;4468513;32;20415;-80
2023/10/20 02:23:31;;;;;;;15.50;7.87;;;;;;;15.86;100.00;96766.12;4468612;32;20131;-80
2023/10/20 02:26:02;;;;;;;16.75;6.65;;;;;;;15.87;100.00;96760.63;4468398;32;20160;-80
2023/10/20 02:28:29;;;;;;;15.60;7.53;;;;;;;15.89;100.00;96761.22;4478552;32;20118;-80
2023/10/20 02:30:59;;;;;;;16.37;7.28;;;;;;;15.93;100.00;96767.66;4484259;31;20137;-80
2023/10/20 02:33:28;;;;;;;14.77;7.00;;;;;;;15.86;100.00;96766.12;4484093;32;20138;-80
2023/10/20 02:35:56;;;;;;;14.90;7.25;;;;;;;15.87;100.00;96758.00;4484250;31;20129;-80
2023/10/20 02:38:23;;;;;;;14.32;7.05;;;;;;;15.89;100.00;96758.56;4484005;31;20159;-80
2023/10/20 02:40:53;;;;;;;15.90;6.47;;;;;;;15.87;100.00;96762.47;4484130;32;20153;-80
2023/10/20 02:43:21;;;;;;;15.48;6.40;;;;;;;15.91;100.00;96771.53;4483698;31;20122;-80
2023/10/20 02:45:53;;;;;;;21.02;6.50;;;;;;;15.83;100.00;96772.66;4484058;31;20152;-80
2023/10/20 02:48:22;;;;;;;12.52;6.40;;;;;;;15.80;100.00;96762.53;4483894;31;20080;-80
2023/10/20 02:50:50;;;;;;;21.45;6.30;;;;;;;15.86;100.00;96771.41;4483890;31;20126;-80
2023/10/20 02:53:18;;;;;;;13.65;5.55;;;;;;;15.87;100.00;96768.56;4485343;31;20153;-80
2023/10/20 02:55:46;;;;;;;15.73;5.85;;;;;;;15.94;100.00;96771.09;4485708;32;20168;-80
2023/10/20 02:58:17;;;;;;;16.55;6.18;;;;;;;16.00;100.00;96761.50;4485833;31;20145;-80
2023/10/20 03:00:46;;;;;;;14.60;5.32;;;;;;;16.01;100.00;96763.91;4485829;31;20140;-80
2023/10/20 03:03:14;;;;;;;12.65;6.10;;;;;;;16.06;100.00;96766.69;4485950;31;20089;-80
2023/10/20 03:05:43;;;;;;;14.73;6.43;;;;;;;16.02;100.00;96764.72;4485801;31;20114;-79
2023/10/20 03:08:11;;;;;;;13.07;5.68;;;;;;;16.01;100.00;96761.28;4485618;31;20119;-80
2023/10/20 03:10:39;;;;;;;17.70;5.62;;;;;;;15.94;100.00;96769.28;4485650;32;20111;-80
2023/10/20 03:13:07;;;;;;;8.77;4.82;;;;;;;16.08;100.00;96783.16;4485688;31;20096;-80
2023/10/20 03:15:34;;;;;;;13.80;5.82;;;;;;;16.05;100.00;96775.66;4483751;31;20118;-80
2023/10/20 03:18:03;;;;;;;15.00;5.90;;;;;;;16.05;100.00;96764.28;4469993;32;20154;-80
2023/10/20 03:20:32;;;;;;;19.48;5.87;;;;;;;16.00;100.00;96772.84;4469853;32;20128;-80
2023/10/20 03:23:00;;;;;;;16.33;6.72;;;;;;;16.03;100.00;96782.19;4469840;32;20123;-80
2023/10/20 03:25:31;;;;;;;13.25;5.90;;;;;;;16.00;100.00;96772.06;4470005;32;20507;-80
2023/10/20 03:27:59;;;;;;;14.63;5.62;;;;;;;15.95;100.00;96770.88;4476629;32;20499;-80
2023/10/20 03:30:27;;;;;;;18.35;6.28;;;;;;;15.83;100.00;96767.38;4485871;31;20482;-80
2023/10/20 03:32:55;;;;;;;13.77;6.07;;;;;;;15.83;100.00;96766.56;4485334;32;20547;-80
2023/10/20 03:35:23;;;;;;;15.23;5.78;;;;;;;15.89;100.00;96768.31;4485367;32;20163;-80
2023/10/20 03:37:54;;;;;;;14.70;5.28;;;;;;;15.96;100.00;96758.50;4485355;32;20145;-80
2023/10/20 03:40:30;;;;;;;14.07;5.53;;;;;;;16.11;100.00;96769.50;4484455;32;20084;-80
2023/10/20 03:42:58;;;;;;;16.90;5.47;;;;;;;16.25;100.00;96766.69;4485427;31;20112;-80
2023/10/20 03:45:26;;;;;;;16.17;5.35;;;;;;;16.38;100.00;96758.59;4485830;31;20096;-80
2023/10/20 03:47:54;;;;;;;18.60;5.62;;;;;;;16.52;100.00;96746.00;4485468;31;20084;-80
2023/10/20 03:50:21;;;;;;;19.65;5.37;;;;;;;16.56;100.00;96743.69;4485371;32;20466;-80
2023/10/20 03:52:49;;;;;;;10.25;5.30;;;;;;;16.62;100.00;96761.31;4485363;32;20100;-80
2023/10/20 03:55:17;;;;;;;11.02;5.00;;;;;;;16.60;100.00;96761.53;4485371;31;20156;-80
2023/10/20 03:57:47;;;;;;;14.45;5.93;;;;;;;16.60;100.00;96755.44;4485345;31;20093;-80
2023/10/20 04:00:18;;;;;;;12.77;6.20;;;;;;;16.49;100.00;96755.19;4485362;31;20106;-80
2023/10/20 04:02:46;;;;;;;13.48;5.50;;;;;;;16.46;100.00;96754.84;4485068;32;20083;-80
2023/10/20 04:05:16;;;;;;;20.40;5.82;;;;;;;16.37;100.00;96751.69;4484952;31;20122;-80
2023/10/20 04:07:45;;;;;;;10.93;5.32;;;;;;;16.31;100.00;96752.59;4484656;31;20505;-80
2023/10/20 04:10:14;;;;;;;16.65;5.57;;;;;;;16.28;100.00;96739.81;4485377;31;20546;-80
2023/10/20 04:12:42;;;;;;;15.18;5.60;;;;;;;16.18;100.00;96735.06;4485239;31;20118;-79
2023/10/20 04:15:19;;;;;;;12.30;5.97;;;;;;;16.22;100.00;96735.44;4484410;31;20095;-79
2023/10/20 04:17:52;;;;;;;10.02;5.82;;;;;;;16.21;100.00;96731.16;4478852;32;20089;-79
2023/10/20 04:20:21;;;;;;;14.65;5.15;;;;;;;16.20;100.00;96734.84;4483524;31;20461;-80
2023/10/20 04:22:49;;;;;;;11.93;5.15;;;;;;;16.14;100.00;96736.56;4483786;31;20155;-79
2023/10/20 04:25:18;;;;;;;21.85;7.22;;;;;;;16.15;100.00;96735.50;4484873;32;20164;-79
2023/10/20 04:27:51;;;;;;;16.42;5.70;;;;;;;15.78;100.00;96728.44;4479619;31;20105;-79
2023/10/20 04:52:48;;;;;;;11.12;5.55;;;;;;;15.57;100.00;96727.00;4484627;32;20141;-76
2023/10/20 04:55:36;;;;;;;20.23;6.40;;;;;;;15.69;100.00;96728.94;4484481;31;20092;-76
2023/10/20 05:00:46;;;;;;;11.50;6.05;;;;;;;15.52;100.00;96731.31;4451042;32;20101;-76
2023/10/20 05:03:30;;;;;;;13.10;6.18;;;;;;;15.54;100.00;96735.34;4448994;32;20136;-76
2023/10/20 05:06:20;;;;;;;14.85;6.43;;;;;;;15.54;100.00;96721.38;4449025;32;20192;-76
2023/10/20 05:08:48;;;;;;;14.52;7.43;;;;;;;15.51;100.00;96717.31;4446587;32;20182;-75
2023/10/20 05:11:16;;;;;;;18.08;6.43;;;;;;;15.62;100.00;96726.34;4446582;32;20145;-75
2023/10/20 05:13:44;;;;;;;15.23;7.60;;;;;;;15.71;100.00;96732.13;4448696;32;20108;-75
2023/10/20 05:16:14;;;;;;;15.65;6.40;;;;;;;15.71;100.00;96729.50;4448898;32;20609;-76
2023/10/20 05:18:42;;;;;;;16.92;6.72;;;;;;;15.75;100.00;96726.19;4454908;32;20447;-75
2023/10/20 05:21:12;;;;;;;13.27;5.72;;;;;;;15.75;100.00;96728.03;4453638;32;20166;-76
2023/10/20 05:23:40;;;;;;;11.18;6.25;;;;;;;15.76;100.00;96721.72;4452711;32;20279;-75
2023/10/20 05:26:09;;;;;;;16.60;6.00;;;;;;;15.77;100.00;96726.81;4449327;32;20133;-76
2023/10/20 05:28:37;;;;;;;15.32;6.68;;;;;;;15.75;100.00;96738.59;4448370;32;20112;-75
2023/10/20 05:31:05;;;;;;;20.27;6.53;;;;;;;15.81;100.00;96739.59;4452538;32;20109;-75
2023/10/20 05:36:03;;;;;;;16.87;6.05;;;;;;;16.08;100.00;96729.53;4505539;31;251576;-75
2023/10/20 05:38:32;;;;;;;20.80;6.60;;;;;;;16.01;100.00;96732.22;4509994;31;20088;-75
2023/10/20 05:41:00;;;;;;;13.07;6.30;;;;;;;16.11;100.00;96732.50;4503773;31;20127;-76
2023/10/20 05:43:27;;;;;;;22.15;5.30;;;;;;;16.23;100.00;96737.03;4503407;31;20088;-76
2023/10/20 05:45:55;;;;;;;20.83;6.15;;;;;;;16.39;100.00;96739.06;4506072;31;20099;-75
2023/10/20 05:48:23;;;;;;;14.25;6.75;;;;;;;16.50;100.00;96748.88;4503897;31;20126;-73
2023/10/20 05:50:56;;;;;;;18.60;6.65;;;;;;;16.62;100.00;96754.19;4501299;31;20195;-73
2023/10/20 05:53:26;;;;;;;17.10;5.93;;;;;;;16.68;100.00;96750.66;4503524;31;20106;-76
2023/10/20 05:55:55;;;;;;;10.65;5.30;;;;;;;16.52;100.00;96753.09;4503684;31;20111;-78
2023/10/20 05:58:22;;;;;;;16.17;6.22;;;;;;;16.56;100.00;96754.28;4502305;31;20096;-78
2023/10/20 06:00:50;;;;;;;15.70;6.70;;;;;;;16.56;100.00;96749.78;4505405;31;20108;-80
2023/10/20 06:03:30;;;;;;;17.52;5.97;;;;;;;16.58;100.00;96754.84;4504821;31;20096;-77
2023/10/20 06:06:03;;;;;;;14.40;6.20;;;;;;;16.64;100.00;96762.69;4500489;31;20096;-78
2023/10/20 06:08:31;;;;;;;15.17;5.83;;;;;;;16.67;100.00;96756.16;4503447;31;20164;-77
2023/10/20 06:11:02;;;;;;;11.43;5.90;;;;;;;16.70;100.00;96755.72;4495927;31;20128;-77
2023/10/20 06:13:35;;;;;;;13.32;6.05;;;;;;;16.73;100.00;96759.72;4493107;31;20095;-77
2023/10/20 06:16:08;;;;;;;19.33;5.83;;;;;;;16.73;100.00;96757.91;4500587;31;20420;-76
2023/10/20 06:18:40;;;;;;;30.08;7.28;;;;;;;16.78;100.00;96755.38;4493857;31;20119;-76
2023/10/20 06:21:16;;;;;;;9.90;5.62;;;;;;;16.81;100.00;96752.28;4491667;31;20084;-78
2023/10/20 06:23:45;;;;;;;15.88;5.97;;;;;;;16.92;100.00;96749.91;4496949;31;20506;-78
2023/10/20 06:26:14;;;;;;;12.93;5.85;;;;;;;17.03;100.00;96746.47;4492520;31;20104;-79
2023/10/20 06:28:43;;;;;;;15.77;6.35;;;;;;;17.05;100.00;96741.78;4496509;31;20167;-78
2023/10/20 06:33:47;;;;;;;11.55;5.35;;;;;;;17.15;100.00;96726.16;4494998;31;20097;-79
2023/10/20 06:36:22;;;;;;;17.83;5.60;;;;;;;17.25;100.00;96725.56;4497232;31;20149;-78
2023/10/20 06:38:49;;;;;;;13.50;5.85;;;;;;;17.26;100.00;96729.00;4496309;31;20104;-77
2023/10/20 06:41:18;;;;;;;14.50;5.97;;;;;;;17.33;100.00;96722.56;4494527;31;20142;-78
2023/10/20 06:43:47;;;;;;;15.23;5.10;;;;;;;17.40;100.00;96724.31;4497456;31;20110;-77
2023/10/20 06:46:14;;;;;;;13.40;5.90;;;;;;;17.47;100.00;96728.44;4489855;31;20132;-75
2023/10/20 06:48:42;;;;;;;14.35;5.55;;;;;;;17.54;100.00;96723.00;4481936;31;20466;-79
2023/10/20 06:51:10;;;;;;;13.35;6.03;;;;;;;17.66;100.00;96726.44;4487108;31;20100;-81
2023/10/20 06:53:38;;;;;;;14.70;6.57;;;;;;;17.74;100.00;96730.56;4484529;31;20096;-81
2023/10/20 06:56:09;;;;;;;17.58;6.62;;;;;;;17.86;100.00;96730.56;4483174;31;20093;-80
2023/10/20 06:58:43;;;;;;;16.67;7.30;;;;;;;17.80;100.00;96737.59;4487254;31;20114;-78
2023/10/20 07:01:11;;;;;;;15.85;6.43;;;;;;;17.82;100.00;96730.22;4484949;31;20113;-79
2023/10/20 07:03:48;;;;;;;18.85;5.50;;;;;;;17.78;100.00;96726.44;4484902;31;20085;-82
2023/10/20 07:06:16;;;;;;;17.23;6.15;;;;;;;17.77;100.00;96731.97;4485499;31;20119;-77
2023/10/20 07:08:43;;;;;;;19.17;6.20;;;;;;;17.72;100.00;96727.38;4488605;31;20096;-77
2023/10/20 07:11:11;;;;;;;17.85;7.43;;;;;;;17.80;100.00;96732.28;4487278;31;20112;-77
2023/10/20 07:13:40;;;;;;;20.12;7.15;;;;;;;17.63;100.00;96734.06;4486094;31;20206;-79
2023/10/20 07:16:08;;;;;;;16.58;6.22;;;;;;;17.40;100.00;96727.75;4480070;31;20101;-78
2023/10/20 07:18:36;;;;;;;15.13;6.43;;;;;;;17.33;100.00;96727.06;4468604;31;20156;-77
2023/10/20 07:21:04;;;;;;;14.70;6.70;;;;;;;17.42;100.00;96724.88;4466457;32;20188;-77
2023/10/20 07:23:32;;;;;;;20.62;7.82;;;;;;;17.50;100.00;96722.69;4469906;32;20096;-78
2023/10/20 07:26:02;;;;;;;13.88;6.00;;;;;;;17.66;100.00;96738.91;4469476;32;20399;-78
2023/10/20 07:28:32;;;;;;;15.52;7.32;;;;;;;17.82;100.00;96740.81;4471041;32;20089;-81
2023/10/20 07:31:10;;;;;;;17.55;6.47;;;;;;;18.02;100.00;96745.75;4469073;32;20100;-80
2023/10/20 07:33:38;;;;;;;11.82;6.03;;;;;;;18.16;100.00;96741.00;4471874;31;20100;-77
2023/10/20 07:36:06;;;;;;;16.80;6.60;;;;;;;18.31;100.00;96745.78;4473688;31;20154;-81
2023/10/20 07:38:34;;;;;;;20.30;6.53;;;;;;;18.39;100.00;96742.72;4471025;32;20084;-80
2023/10/20 07:41:10;;;;;;;13.15;6.65;;;;;;;18.53;100.00;96745.94;4470411;32;20151;-78
2023/10/20 07:43:39;;;;;;;15.60;6.97;;;;;;;18.31;100.00;96731.72;4470148;31;20092;-76
2023/10/20 07:46:13;;;;;;;16.15;6.85;;;;;;;18.43;100.00;96738.56;4470234;32;20489;-81
2023/10/20 07:48:42;;;;;;;17.42;6.43;;;;;;;18.27;100.00;96747.28;4470660;32;20256;-75
2023/10/20 07:51:11;;;;;;;14.50;6.40;;;;;;;18.36;100.00;96739.75;4472471;32;20118;-77
2023/10/20 07:53:39;;;;;;;17.70;7.68;;;;;;;18.45;100.00;96727.72;4470854;32;20491;-77
2023/10/20 07:56:06;;;;;;;11.80;5.78;;;;;;;18.59;100.00;96728.22;4470110;32;20518;-77
2023/10/20 07:58:38;;;;;;;15.95;6.07;;;;;;;18.60;100.00;96714.72;4469191;31;20149;-77
2023/10/20 08:01:06;;;;;;;11.80;5.47;;;;;;;18.59;100.00;96713.16;4469813;32;20194;-76
2023/10/20 08:03:36;;;;;;;12.63;6.50;;;;;;;18.50;100.00;96719.88;4473103;32;20080;-77
2023/10/20 08:06:05;;;;;;;18.62;6.68;;;;;;;18.58;100.00;96721.34;4467553;32;20444;-76
2023/10/20 08:08:33;;;;;;;15.55;6.37;;;;;;;18.69;100.00;96720.47;4468101;32;20117;-76
2023/10/20 08:11:03;;;;;;;17.70;6.50;;;;;;;18.60;100.00;96714.72;4468277;32;20179;-75
2023/10/20 08:13:32;;;;;;;14.10;6.43;;;;;;;18.68;100.00;96715.41;4466814;32;20089;-77
2023/10/20 08:16:04;;;;;;;14.68;5.40;;;;;;;18.74;100.00;96714.44;4469061;32;20092;-75
2023/10/20 08:18:35;;;;;;;10.40;5.97;;;;;;;18.74;100.00;96707.28;4468514;32;20496;-77
2023/10/20 08:21:09;;;;;;;16.60;5.12;;;;;;;18.92;100.00;96711.56;4467528;32;20167;-77
2023/10/20 08:23:37;;;;;;;12.88;6.05;;;;;;;19.05;100.00;96715.75;4473868;32;20154;-78
2023/10/20 08:26:05;;;;;;;13.20;6.00;;;;;;;19.06;100.00;96727.16;4470718;31;20097;-78
2023/10/20 08:28:33;;;;;;;14.45;6.25;;;;;;;19.08;100.00;96719.78;4470873;32;20104;-78
2023/10/20 08:31:07;;;;;;;15.50;6.90;;;;;;;18.97;100.00;96729.44;4470998;31;20171;-74
2023/10/20 08:33:36;;;;;;;15.23;6.05;;;;;;;19.13;100.00;96733.13;4472352;32;20115;-77
2023/10/20 08:36:11;;;;;;;15.95;5.72;;;;;;;19.03;100.00;96736.44;4470647;32;20157;-77
2023/10/20 08:38:40;;;;;;;14.80;4.85;;;;;;;19.13;100.00;96735.78;4472664;32;20134;-75
2023/10/20 08:41:09;;;;;;;15.18;5.22;;;;;;;19.27;100.00;96726.47;4470534;32;20183;-75
2023/10/20 08:43:41;;;;;;;18.42;4.85;;;;;;;19.21;100.00;96729.25;4469770;32;20468;-75
2023/10/20 08:46:11;;;;;;;16.73;4.97;;;;;;;19.29;100.00;96736.84;4471650;32;20714;-75
2023/10/20 08:48:40;;;;;;;16.33;5.20;;;;;;;19.20;100.00;96744.41;4473847;31;20143;-75
2023/10/20 08:51:10;;;;;;;16.42;4.45;;;;;;;19.26;100.00;96737.31;4470739;31;20201;-75
2023/10/20 08:53:38;;;;;;;16.23;5.03;;;;;;;19.19;100.00;96741.97;4470698;32;20109;-75
2023/10/20 08:56:09;;;;;;;14.35;4.82;;;;;;;19.13;100.00;96738.44;4470853;32;20104;-75
2023/10/20 08:58:38;;;;;;;11.98;5.35;;;;;;;19.17;100.00;96747.53;4471155;32;20147;-75
2023/10/20 09:01:07;;;;;;;16.75;4.60;;;;;;;19.26;100.00;96746.06;4470987;32;20143;-75
2023/10/20 09:03:48;;;;;;;16.40;5.00;;;;;;;19.25;100.00;96736.50;4472324;32;20153;-74
2023/10/20 09:06:16;;;;;;;18.92;5.12;;;;;;;19.41;100.00;96739.37;4470469;32;20101;-79
2023/10/20 09:08:49;;;;;;;13.95;4.90;;;;;;;19.48;100.00;96740.78;4464874;32;20841;-78
2023/10/20 09:11:33;;;;;;;17.12;3.87;;;;;;;19.49;100.00;96734.44;4470037;32;20105;-77
2023/10/20 09:14:02;;;;;;;11.18;4.50;;;;;;;19.63;100.00;96739.41;4467716;32;20560;-77
2023/10/20 09:16:33;;;;;;;19.85;4.95;;;;;;;19.81;100.00;96739.16;4467470;32;20096;-76
2023/10/20 09:19:03;;;;;;;12.75;5.18;;;;;;;20.01;100.00;96735.94;4467281;32;20475;-75
2023/10/20 09:21:30;;;;;;;13.18;4.40;;;;;;;20.29;100.00;96733.34;4468879;32;20631;-77
2023/10/20 09:24:03;;;;;;;12.93;4.65;;;;;;;20.60;100.00;96729.09;4469126;32;20680;-79
2023/10/20 09:26:34;;;;;;;10.95;5.03;;;;;;;20.85;100.00;96723.25;4468314;32;20525;-80
2023/10/20 09:29:05;;;;;;;12.70;4.37;;;;;;;21.31;100.00;96728.09;4466062;32;20812;-79
2023/10/20 09:31:36;;;;;;;12.05;4.65;;;;;;;21.57;97.12;96730.94;4469045;32;20125;-78
2023/10/20 09:34:07;;;;;;;8.65;3.70;;;;;;;21.78;95.46;96723.87;4477070;31;20178;-78
2023/10/20 09:36:36;;;;;;;11.77;4.25;;;;;;;21.94;94.73;96727.41;4465437;32;21214;-76
2023/10/20 09:39:08;;;;;;;19.00;4.05;;;;;;;22.03;92.57;96723.19;4470909;32;20088;-76
2023/10/20 09:41:36;;;;;;;16.12;4.65;;;;;;;22.12;92.50;96715.44;4468442;32;21185;-80
2023/10/20 09:44:08;;;;;;;20.50;4.60;;;;;;;22.06;92.81;96712.00;4468072;32;20114;-78
2023/10/20 09:46:54;;;;;;;11.82;4.03;;;;;;;22.10;92.48;96713.03;4467888;32;20486;-80
2023/10/20 09:49:27;;;;;;;14.82;3.55;;;;;;;22.33;91.26;96697.66;4459926;31;20139;-79
2023/10/20 09:51:56;;;;;;;9.07;3.40;;;;;;;22.64;88.81;96709.19;4469918;32;20675;-82
2023/10/20 09:54:32;;;;;;;16.25;3.83;;;;;;;22.74;87.52;96708.41;4475407;32;20468;-79
2023/10/20 09:57:00;;;;;;;16.17;4.22;;;;;;;22.94;88.23;96709.50;4470899;32;20131;-79
2023/10/20 09:59:28;;;;;;;14.05;3.83;;;;;;;23.06;85.82;96710.00;4469581;32;20100;-79
2023/10/20 10:01:58;;;;;;;14.63;3.80;;;;;;;23.29;84.16;96722.03;4467608;32;20088;-81
2023/10/20 10:04:36;;;;;;;14.80;3.65;;;;;;;23.39;84.56;96708.66;4466625;32;20100;-80
2023/10/20 10:07:07;;;;;;;15.98;3.30;;;;;;;23.37;84.16;96697.41;4473717;32;20442;-81
2023/10/20 10:09:40;;;;;;;12.60;3.97;;;;;;;23.46;83.93;96689.66;4476008;31;20588;-79
2023/10/20 10:12:14;;;;;;;14.70;3.25;;;;;;;23.53;82.23;96684.81;4473550;32;20098;-78
2023/10/20 10:15:06;;;;;;;21.23;4.82;;;;;;;23.46;83.25;96689.66;4472940;32;20503;-82
2023/10/20 10:17:45;;;;;;;20.42;4.00;;;;;;;23.37;82.13;96696.62;4469487;32;20108;-82
2023/10/20 10:20:27;;;;;;;14.50;3.90;;;;;;;23.47;83.09;96709.97;4476995;32;20123;-81
2023/10/20 10:23:04;;;;;;;13.32;3.78;;;;;;;23.63;82.76;96716.06;4480721;32;20172;-80
2023/10/20 10:25:35;;;;;;;15.15;3.58;;;;;;;23.80;82.99;96721.09;4475689;32;20528;-77
2023/10/20 10:28:17;;;;;;;16.80;5.07;;;;;;;23.90;83.50;96710.38;4480742;31;20092;-79
2023/10/20 10:30:51;;;;;;;22.60;4.37;;;;;;;23.73;82.21;96705.34;4480604;32;20115;-80
2023/10/20 10:33:21;;;;;;;13.27;3.58;;;;;;;23.43;82.98;96714.25;4478554;31;20151;-78
2023/10/20 10:35:49;;;;;;;11.75;4.35;;;;;;;23.48;84.54;96716.09;4479919;31;20560;-77
2023/10/20 10:38:21;;;;;;;16.48;4.00;;;;;;;23.58;84.46;96715.28;4478283;32;20109;-78
2023/10/20 10:40:52;;;;;;;19.23;4.22;;;;;;;23.77;84.14;96716.31;4473823;32;20234;-78
2023/10/20 10:43:21;;;;;;;14.40;3.78;;;;;;;24.00;81.54;96714.09;4479874;31;20100;-78
2023/10/20 10:45:54;;;;;;;10.25;3.70;;;;;;;24.09;81.37;96707.09;4481540;32;20450;-81
2023/10/20 10:48:27;;;;;;;14.45;4.55;;;;;;;24.22;80.30;96703.00;4479723;32;20108;-77
2023/10/20 10:50:55;;;;;;;14.48;4.20;;;;;;;24.43;80.33;96701.00;4474606;32;20089;-80
2023/10/20 10:53:26;;;;;;;27.37;4.80;;;;;;;24.56;79.15;96697.72;4479376;32;20125;-77
2023/10/20 10:55:54;;;;;;;22.00;3.85;;;;;;;24.63;78.28;96697.41;4472800;32;20536;-76
2023/10/20 10:58:23;;;;;;;20.08;3.65;;;;;;;24.65;77.94;96681.06;4472907;31;20584;-77
2023/10/20 11:00:50;;;;;;;15.15;3.37;;;;;;;24.60;78.32;96676.56;4471139;32;20128;-77
2023/10/20 11:03:19;;;;;;;13.43;3.75;;;;;;;24.74;77.44;96680.22;4475890;32;20895;-77
2023/10/20 11:05:51;;;;;;;14.65;4.90;;;;;;;24.70;76.79;96671.13;4472002;32;20095;-77
2023/10/20 11:08:19;;;;;;;16.98;3.05;;;;;;;24.92;74.41;96659.16;4473619;32;20089;-77
2023/10/20 11:10:46;;;;;;;15.15;3.30;;;;;;;25.20;71.54;96644.16;4471611;31;20111;-77
2023/10/20 11:13:16;;;;;;;11.90;2.72;;;;;;;25.55;69.99;96644.09;4461206;32;20111;-77
2023/10/20 11:15:47;;;;;;;9.75;2.12;;;;;;;26.11;65.18;96656.78;4473344;32;20577;-77
2023/10/20 11:18:16;;;;;;;19.33;3.30;;;;;;;26.51;59.64;96632.31;4469594;31;20799;-75
2023/10/20 11:20:47;;;;;;;11.57;2.42;;;;;;;27.08;57.51;96629.50;4473639;32;20108;-74
2023/10/20 11:23:19;;;;;;;18.08;2.37;;;;;;;27.34;54.79;96629.06;4472296;32;20961;-76
2023/10/20 11:25:48;;;;;;;16.42;2.58;;;;;;;27.48;51.09;96637.13;4476043;32;20742;-76
2023/10/20 11:28:16;;;;;;;14.23;2.55;;;;;;;27.51;49.89;96631.13;4477244;32;20101;-76
2023/10/20 11:30:45;;;;;;;14.65;2.62;;;;;;;27.49;49.23;96633.34;4469696;32;20111;-74
2023/10/20 11:33:13;;;;;;;10.43;2.30;;;;;;;27.34;48.61;96620.97;4474742;32;20740;-76
2023/10/20 11:35:46;;;;;;;10.75;2.67;;;;;;;27.00;48.34;96616.75;4474892;32;20097;-75
2023/10/20 11:38:16;;;;;;;10.35;2.70;;;;;;;26.89;48.18;96621.53;4473635;32;20124;-75
2023/10/20 11:40:47;;;;;;;9.20;2.17;;;;;;;26.89;48.62;96613.47;4472691;31;20100;-76
2023/10/20 11:43:16;;;;;;;14.05;2.97;;;;;;;26.84;48.10;96621.59;4477434;32;20088;-76
2023/10/20 11:45:43;;;;;;;13.20;3.30;;;;;;;26.79;48.34;96611.75;4477879;31;20092;-76
2023/10/20 11:48:10;;;;;;;11.27;2.40;;;;;;;26.71;47.74;96626.66;4472562;31;20107;-75
2023/10/20 11:50:37;;;;;;;14.65;3.25;;;;;;;26.71;48.27;96625.88;4477811;32;20088;-76
2023/10/20 11:53:05;;;;;;;13.80;2.80;;;;;;;26.68;48.87;96619.19;4475854;32;20532;-76
2023/10/20 11:55:32;;;;;;;15.20;2.30;;;;;;;26.63;48.94;96613.06;4472875;32;20154;-76
2023/10/20 11:58:03;;;;;;;11.73;2.33;;;;;;;26.67;48.99;96609.53;4474650;32;20089;-77
2023/10/20 12:00:30;;;;;;;23.60;3.25;;;;;;;26.62;48.25;96606.91;4477900;32;20124;-77